createdAt,value
2022-11-20T00:01:07.014Z,61.78
2022-11-20T00:03:34.203Z,61.97
2022-11-20T00:06:09.942Z,61.73
2022-11-20T00:08:37.319Z,61.77
2022-11-20T00:11:15.727Z,62.17
2022-11-20T00:13:44.898Z,62.25
2022-11-20T00:16:14.823Z,62.29
2022-11-20T00:18:43.356Z,62.00
2022-11-20T00:21:16.916Z,62.07
2022-11-20T00:23:44.367Z,62.06
2022-11-20T00:26:13.893Z,62.09
2022-11-20T00:28:41.730Z,62.30
2022-11-20T00:31:14.331Z,62.66
2022-11-20T00:33:42.414Z,62.48
2022-11-20T00:36:17.901Z,62.58
2022-11-20T00:38:45.522Z,62.55
2022-11-20T00:41:15.148Z,62.59
2022-11-20T00:43:42.862Z,62.70
2022-11-20T00:46:15.581Z,62.58
2022-11-20T00:48:43.329Z,62.51
2022-11-20T00:51:12.055Z,62.70
2022-11-20T00:53:38.803Z,62.58
2022-11-20T00:56:08.847Z,62.86
2022-11-20T00:58:37.755Z,62.64
2022-11-20T01:01:10.131Z,62.58
2022-11-20T01:03:40.059Z,62.64
2022-11-20T01:06:19.000Z,62.62
2022-11-20T01:08:47.113Z,62.33
2022-11-20T01:11:17.114Z,62.54
2022-11-20T01:13:46.179Z,62.71
2022-11-20T01:16:21.987Z,62.77
2022-11-20T01:18:51.817Z,62.71
2022-11-20T01:21:23.995Z,62.52
2022-11-20T01:23:52.041Z,62.53
2022-11-20T01:26:25.908Z,62.84
2022-11-20T01:28:54.044Z,62.27
2022-11-20T01:31:24.543Z,62.58
2022-11-20T01:33:54.429Z,62.49
2022-11-20T01:36:23.363Z,62.51
2022-11-20T01:38:54.464Z,62.24
2022-11-20T01:41:41.345Z,62.15
2022-11-20T01:44:11.773Z,62.24
2022-11-20T01:46:41.318Z,62.17
2022-11-20T01:49:30.890Z,62.31
2022-11-20T01:52:23.990Z,61.94
2022-11-20T01:54:57.575Z,61.92
2022-11-20T01:57:29.307Z,62.31
2022-11-20T02:00:03.791Z,62.00
2022-11-20T02:02:41.749Z,62.06
2022-11-20T02:05:27.001Z,62.34
2022-11-20T02:07:57.261Z,62.56
2022-11-20T02:10:24.073Z,62.41
2022-11-20T02:13:09.763Z,62.46
2022-11-20T02:15:36.655Z,62.77
2022-11-20T02:18:03.749Z,62.78
2022-11-20T02:20:30.479Z,62.60
2022-11-20T02:23:09.053Z,62.57
2022-11-20T02:25:38.008Z,62.38
2022-11-20T02:28:05.840Z,62.33
2022-11-20T02:30:32.970Z,62.54
2022-11-20T02:32:59.696Z,62.27
2022-11-20T02:35:26.592Z,62.38
2022-11-20T02:37:56.332Z,62.49
2022-11-20T02:40:23.818Z,62.25
2022-11-20T02:42:54.609Z,62.46
2022-11-20T02:45:21.848Z,62.33
2022-11-20T02:47:48.627Z,62.15
2022-11-20T02:50:15.869Z,62.42
2022-11-20T02:52:43.571Z,62.33
2022-11-20T02:55:11.433Z,62.68
2022-11-20T02:57:38.179Z,62.20
2022-11-20T03:00:05.999Z,62.63
2022-11-20T03:02:33.261Z,62.69
2022-11-20T03:05:00.089Z,62.51
2022-11-20T03:07:26.816Z,62.87
2022-11-20T03:09:53.561Z,62.82
2022-11-20T03:12:20.153Z,62.50
2022-11-20T03:14:52.572Z,62.77
2022-11-20T03:17:20.107Z,62.98
2022-11-20T03:19:46.991Z,62.92
2022-11-20T03:22:13.896Z,62.64
2022-11-20T03:24:40.719Z,62.60
2022-11-20T03:27:07.576Z,62.82
2022-11-20T03:29:35.727Z,62.53
2022-11-20T03:32:02.636Z,62.62
2022-11-20T03:34:29.303Z,62.68
2022-11-20T03:36:56.087Z,62.92
2022-11-20T03:39:23.010Z,62.87
2022-11-20T03:41:50.105Z,62.88
2022-11-20T03:44:17.167Z,63.27
2022-11-20T03:46:43.913Z,62.87
2022-11-20T03:49:10.710Z,62.88
2022-11-20T03:51:37.524Z,63.28
2022-11-20T03:54:09.134Z,62.82
2022-11-20T03:56:38.122Z,63.01
2022-11-20T03:59:05.311Z,63.90
2022-11-20T04:01:35.823Z,63.11
2022-11-20T04:04:03.498Z,63.72
2022-11-20T04:06:34.728Z,63.19
2022-11-20T04:09:01.685Z,63.81
2022-11-20T04:11:31.074Z,63.96
2022-11-20T04:14:14.452Z,63.56
2022-11-20T04:16:41.709Z,63.29
2022-11-20T04:19:13.028Z,63.48
2022-11-20T04:21:39.654Z,63.75
2022-11-20T04:24:07.565Z,64.30
2022-11-20T04:26:35.432Z,64.27
2022-11-20T04:29:02.953Z,63.85
2022-11-20T04:31:33.864Z,63.49
2022-11-20T04:34:02.296Z,64.16
2022-11-20T04:36:30.118Z,63.92
2022-11-20T04:39:00.641Z,64.15
2022-11-20T04:41:32.386Z,63.52
2022-11-20T04:44:04.269Z,64.09
2022-11-20T04:46:37.388Z,64.53
2022-11-20T04:49:04.316Z,63.65
2022-11-20T04:51:31.090Z,63.64
2022-11-20T04:53:58.079Z,64.44
2022-11-20T04:56:25.285Z,64.44
2022-11-20T04:58:52.107Z,64.32
2022-11-20T05:01:22.221Z,64.00
2022-11-20T05:03:49.439Z,64.42
2022-11-20T05:06:18.909Z,64.62
2022-11-20T05:08:45.672Z,64.59
2022-11-20T05:11:15.318Z,64.52
2022-11-20T05:13:42.890Z,64.45
2022-11-20T05:16:12.949Z,64.02
2022-11-20T05:18:40.803Z,64.79
2022-11-20T05:21:08.740Z,64.19
2022-11-20T05:23:36.892Z,63.95
2022-11-20T05:26:04.647Z,64.80
2022-11-20T05:28:32.737Z,64.80
2022-11-20T05:31:09.718Z,64.94
2022-11-20T05:33:37.255Z,64.92
2022-11-20T05:36:05.323Z,64.55
2022-11-20T05:38:32.229Z,64.34
2022-11-20T05:41:05.629Z,64.67
2022-11-20T05:43:41.076Z,64.77
2022-11-20T05:46:10.191Z,64.93
2022-11-20T05:48:38.375Z,64.79
2022-11-20T05:51:08.178Z,64.79
2022-11-20T05:53:36.877Z,64.99
2022-11-20T05:56:05.498Z,64.91
2022-11-20T05:58:33.396Z,64.74
2022-11-20T06:01:11.749Z,64.60
2022-11-20T06:03:39.250Z,64.62
2022-11-20T06:06:06.656Z,64.90
2022-11-20T06:08:34.169Z,64.45
2022-11-20T06:11:07.734Z,64.68
2022-11-20T06:13:39.169Z,64.74
2022-11-20T06:16:08.568Z,64.75
2022-11-20T06:18:35.324Z,64.89
2022-11-20T06:21:04.901Z,65.05
2022-11-20T06:23:32.606Z,64.79
2022-11-20T06:26:06.530Z,65.24
2022-11-20T06:28:33.579Z,64.79
2022-11-20T06:31:00.884Z,65.12
2022-11-20T06:33:28.168Z,65.10
2022-11-20T06:36:00.454Z,64.26
2022-11-20T06:38:29.519Z,65.08
2022-11-20T06:40:56.804Z,65.27
2022-11-20T06:43:23.835Z,65.86
2022-11-20T06:45:57.872Z,65.72
2022-11-20T06:48:26.455Z,64.95
2022-11-20T06:50:53.536Z,65.26
2022-11-20T06:53:20.376Z,65.19
2022-11-20T06:55:48.407Z,65.09
2022-11-20T06:58:16.396Z,65.28
2022-11-20T07:00:44.215Z,64.50
2022-11-20T07:03:12.867Z,64.85
2022-11-20T07:05:39.805Z,64.99
2022-11-20T07:08:06.698Z,64.99
2022-11-20T07:10:33.936Z,65.44
2022-11-20T07:13:00.792Z,65.22
2022-11-20T07:15:28.076Z,65.17
2022-11-20T07:17:54.940Z,65.23
2022-11-20T07:20:21.887Z,64.85
2022-11-20T07:22:55.737Z,64.95
2022-11-20T07:25:23.550Z,64.65
2022-11-20T07:27:50.338Z,64.02
2022-11-20T07:30:17.812Z,64.01
2022-11-20T07:32:48.094Z,63.73
2022-11-20T07:35:15.298Z,64.12
2022-11-20T07:37:42.056Z,64.30
2022-11-20T07:40:09.194Z,64.43
2022-11-20T07:42:36.018Z,64.11
2022-11-20T07:45:02.656Z,64.20
2022-11-20T07:47:29.414Z,64.27
2022-11-20T07:49:56.366Z,64.15
2022-11-20T07:52:23.062Z,64.29
2022-11-20T07:54:50.041Z,64.30
2022-11-20T07:57:17.044Z,64.39
2022-11-20T07:59:43.962Z,64.46
2022-11-20T08:02:12.332Z,64.14
2022-11-20T08:04:39.068Z,64.30
2022-11-20T08:07:05.807Z,64.35
2022-11-20T08:09:34.982Z,64.40
2022-11-20T08:12:20.494Z,64.71
2022-11-20T08:14:47.268Z,64.98
2022-11-20T08:17:14.163Z,64.59
2022-11-20T08:19:40.860Z,64.47
2022-11-20T08:22:07.715Z,65.06
2022-11-20T08:24:34.432Z,64.72
2022-11-20T08:27:01.689Z,64.92
2022-11-20T08:29:28.599Z,64.91
2022-11-20T08:31:55.529Z,65.02
2022-11-20T08:34:22.463Z,64.99
2022-11-20T08:36:49.206Z,64.65
2022-11-20T08:39:16.116Z,64.72
2022-11-20T08:41:42.963Z,64.71
2022-11-20T08:44:09.940Z,64.43
2022-11-20T08:46:39.676Z,64.12
2022-11-20T08:49:07.865Z,64.29
2022-11-20T08:51:34.717Z,64.67
2022-11-20T08:54:01.926Z,65.10
2022-11-20T08:56:28.857Z,65.12
2022-11-20T08:59:20.142Z,65.40
2022-11-20T09:01:42.668Z,65.14
2022-11-20T09:04:09.733Z,64.88
2022-11-20T09:06:36.858Z,65.19
2022-11-20T09:09:06.861Z,65.14
2022-11-20T09:11:34.033Z,64.94
2022-11-20T09:14:01.318Z,64.80
2022-11-20T09:16:28.224Z,65.01
2022-11-20T09:19:20.168Z,64.95
2022-11-20T09:21:41.807Z,65.03
2022-11-20T09:24:08.614Z,64.95
2022-11-20T09:26:35.725Z,64.94
2022-11-20T09:29:02.577Z,65.04
2022-11-20T09:31:29.504Z,64.84
2022-11-20T09:33:56.494Z,64.90
2022-11-20T09:36:23.358Z,64.97
2022-11-20T09:38:50.526Z,64.89
2022-11-20T09:41:17.228Z,64.65
2022-11-20T09:44:05.614Z,64.70
2022-11-20T09:46:46.384Z,64.59
2022-11-20T09:49:51.359Z,64.87
2022-11-20T09:52:47.399Z,64.68
2022-11-20T09:55:15.984Z,64.48
2022-11-20T09:57:48.090Z,64.78
2022-11-20T10:00:16.290Z,64.41
2022-11-20T10:03:07.461Z,64.47
2022-11-20T10:05:53.803Z,64.55
2022-11-20T10:08:30.355Z,64.35
2022-11-20T10:11:21.015Z,64.24
2022-11-20T10:14:11.844Z,64.35
2022-11-20T10:17:02.684Z,64.38
2022-11-20T10:19:43.953Z,64.20
2022-11-20T10:22:29.495Z,63.98
2022-11-20T10:25:22.999Z,63.98
2022-11-20T10:27:58.792Z,63.93
2022-11-20T10:30:26.378Z,63.94
2022-11-20T10:32:59.740Z,63.97
2022-11-20T10:36:01.036Z,63.98
2022-11-20T10:38:51.450Z,63.92
2022-11-20T10:41:27.253Z,63.87
2022-11-20T10:44:03.059Z,63.82
2022-11-20T10:46:39.102Z,63.73
2022-11-20T10:49:20.316Z,63.74
2022-11-20T10:52:12.315Z,63.68
2022-11-20T10:54:54.107Z,63.66
2022-11-20T10:57:51.332Z,63.57
2022-11-20T11:00:18.704Z,63.40
2022-11-20T11:02:54.243Z,63.46
2022-11-20T11:05:45.478Z,63.40
2022-11-20T11:08:15.830Z,63.40
2022-11-20T11:10:53.574Z,63.63
2022-11-20T11:13:29.711Z,63.37
2022-11-20T11:15:57.433Z,63.28
2022-11-20T11:18:31.232Z,63.39
2022-11-20T11:21:00.606Z,63.26
2022-11-20T11:23:33.512Z,63.27
2022-11-20T11:26:02.308Z,63.09
2022-11-20T11:28:29.708Z,63.17
2022-11-20T11:30:57.214Z,63.18
2022-11-20T11:33:29.582Z,63.53
2022-11-20T11:35:59.644Z,63.60
2022-11-20T11:38:29.445Z,63.42
2022-11-20T11:40:58.289Z,63.41
2022-11-20T11:43:46.463Z,63.24
2022-11-20T11:46:32.774Z,63.09
2022-11-20T11:49:01.387Z,62.97
2022-11-20T11:51:37.801Z,62.92
2022-11-20T11:54:14.881Z,62.62
2022-11-20T11:56:42.042Z,62.61
2022-11-20T11:59:17.488Z,62.47
2022-11-20T12:01:52.228Z,62.09
2022-11-20T12:04:43.669Z,62.06
2022-11-20T12:07:46.008Z,61.98
2022-11-20T12:10:31.290Z,61.83
2022-11-20T12:13:05.723Z,61.89
2022-11-20T12:15:35.648Z,61.95
2022-11-20T12:18:03.104Z,61.76
2022-11-20T12:20:46.872Z,61.83
2022-11-20T12:23:29.031Z,62.02
2022-11-20T12:25:59.692Z,61.93
2022-11-20T12:28:49.982Z,61.98
2022-11-20T12:31:52.378Z,62.14
2022-11-20T12:34:48.580Z,62.11
2022-11-20T12:37:47.711Z,61.99
2022-11-20T12:40:48.678Z,62.08
2022-11-20T12:44:05.637Z,62.03
2022-11-20T12:46:51.381Z,62.12
2022-11-20T12:50:07.044Z,62.36
2022-11-20T12:52:52.800Z,62.37
2022-11-20T12:55:54.640Z,62.40
2022-11-20T12:59:09.433Z,62.45
2022-11-20T13:01:48.856Z,62.54
2022-11-20T13:12:46.083Z,62.75
2022-11-20T13:15:32.130Z,62.68
2022-11-20T13:18:09.855Z,62.86
2022-11-20T13:23:34.666Z,62.34
2022-11-20T13:26:07.290Z,62.50
2022-11-20T13:28:34.502Z,62.45
2022-11-20T13:31:01.430Z,62.24
2022-11-20T13:33:40.597Z,62.18
2022-11-20T13:36:22.998Z,62.15
2022-11-20T13:39:00.651Z,62.00
2022-11-20T13:41:35.166Z,62.02
2022-11-20T13:44:36.371Z,62.00
2022-11-20T13:47:03.295Z,62.20
2022-11-20T13:49:43.851Z,62.02
2022-11-20T13:52:49.020Z,62.01
2022-11-20T13:55:47.660Z,61.89
2022-11-20T13:59:05.292Z,61.91
2022-11-20T14:01:33.719Z,61.96
2022-11-20T14:04:07.601Z,62.02
2022-11-20T14:06:42.280Z,62.05
2022-11-20T14:09:31.606Z,61.92
2022-11-20T14:11:58.599Z,61.90
2022-11-20T14:14:28.056Z,61.94
2022-11-20T14:17:05.968Z,61.96
2022-11-20T14:19:33.793Z,61.91
2022-11-20T14:22:24.494Z,61.92
2022-11-20T14:25:13.027Z,61.79
2022-11-20T14:27:42.670Z,62.04
2022-11-20T14:30:35.798Z,62.02
2022-11-20T14:33:04.899Z,61.92
2022-11-20T14:35:38.026Z,62.05
2022-11-20T14:38:05.313Z,62.06
2022-11-20T14:40:36.943Z,61.91
2022-11-20T14:43:17.462Z,61.89
2022-11-20T14:45:47.448Z,61.99
2022-11-20T14:48:14.515Z,62.04
2022-11-20T14:50:41.613Z,61.92
2022-11-20T14:53:08.333Z,61.88
2022-11-20T14:55:39.746Z,61.88
2022-11-20T14:58:21.901Z,62.07
2022-11-20T15:01:00.240Z,61.96
2022-11-20T15:03:35.051Z,61.80
2022-11-20T15:06:02.139Z,61.91
2022-11-20T15:08:29.323Z,61.93
2022-11-20T15:10:56.725Z,61.98
2022-11-20T15:13:32.638Z,61.96
2022-11-20T15:16:04.888Z,62.01
2022-11-20T15:18:39.382Z,62.10
2022-11-20T15:21:12.732Z,62.06
2022-11-20T15:23:39.557Z,62.08
2022-11-20T15:26:07.704Z,61.94
2022-11-20T15:28:41.949Z,62.12
2022-11-20T15:31:14.038Z,62.07
2022-11-20T15:33:40.915Z,61.99
2022-11-20T15:36:08.069Z,62.16
2022-11-20T15:38:34.856Z,61.93
2022-11-20T15:41:01.823Z,62.14
2022-11-20T15:43:28.545Z,61.91
2022-11-20T15:46:00.182Z,61.91
2022-11-20T15:48:30.647Z,61.88
2022-11-20T15:51:12.869Z,62.03
2022-11-20T15:53:41.491Z,61.94
2022-11-20T15:56:13.686Z,62.00
2022-11-20T15:58:41.367Z,62.06
2022-11-20T16:01:17.067Z,62.01
2022-11-20T16:03:44.046Z,61.93
2022-11-20T16:06:10.822Z,61.84
2022-11-20T16:08:37.692Z,62.08
2022-11-20T16:11:04.643Z,62.34
2022-11-20T16:13:51.809Z,62.24
2022-11-20T16:16:31.282Z,61.90
2022-11-20T16:18:58.606Z,61.83
2022-11-20T16:21:31.666Z,61.77
2022-11-20T16:24:03.092Z,61.80
2022-11-20T16:26:30.342Z,61.77
2022-11-20T16:28:57.654Z,61.70
2022-11-20T16:31:24.513Z,61.52
2022-11-20T16:33:53.487Z,61.66
2022-11-20T16:36:22.012Z,61.56
2022-11-20T16:38:56.544Z,61.69
2022-11-20T16:41:26.730Z,61.51
2022-11-20T16:43:58.146Z,61.45
2022-11-20T16:46:27.340Z,61.32
2022-11-20T16:49:05.922Z,61.53
2022-11-20T16:51:35.971Z,61.51
2022-11-20T16:54:07.885Z,61.60
2022-11-20T16:56:35.049Z,62.08
2022-11-20T16:59:02.782Z,62.42
2022-11-20T17:01:31.386Z,62.13
2022-11-20T17:04:00.460Z,61.89
2022-11-20T17:06:29.462Z,61.91
2022-11-20T17:08:57.063Z,61.51
2022-11-20T17:11:24.347Z,61.45
2022-11-20T17:13:52.175Z,61.41
2022-11-20T17:16:21.186Z,61.47
2022-11-20T17:18:50.097Z,61.25
2022-11-20T17:21:18.320Z,61.07
2022-11-20T17:23:46.462Z,61.20
2022-11-20T17:26:22.517Z,61.11
2022-11-20T17:29:01.297Z,61.05
2022-11-20T17:31:29.738Z,60.99
2022-11-20T17:33:56.805Z,60.93
2022-11-20T17:36:23.868Z,60.80
2022-11-20T17:38:50.599Z,60.67
2022-11-20T17:41:23.023Z,60.72
2022-11-20T17:43:50.114Z,61.01
2022-11-20T17:46:19.747Z,61.10
2022-11-20T17:48:48.608Z,61.07
2022-11-20T17:51:17.187Z,61.11
2022-11-20T17:53:47.907Z,61.10
2022-11-20T17:56:34.066Z,61.11
2022-11-20T17:59:01.219Z,61.28
2022-11-20T18:01:28.043Z,60.97
2022-11-20T18:03:57.304Z,60.63
2022-11-20T18:06:26.267Z,60.99
2022-11-20T18:08:53.805Z,61.09
2022-11-20T18:11:26.515Z,61.00
2022-11-20T18:14:14.565Z,61.02
2022-11-20T18:16:46.907Z,61.09
2022-11-20T18:19:16.837Z,60.82
2022-11-20T18:21:43.659Z,60.89
2022-11-20T18:24:10.878Z,60.92
2022-11-20T18:26:43.885Z,61.06
2022-11-20T18:29:12.193Z,60.86
2022-11-20T18:31:39.546Z,61.11
2022-11-20T18:34:07.878Z,61.01
2022-11-20T18:36:34.713Z,61.03
2022-11-20T18:39:01.800Z,60.85
2022-11-20T18:41:49.637Z,60.62
2022-11-20T18:44:41.367Z,60.96
2022-11-20T18:47:14.613Z,61.16
2022-11-20T18:49:54.930Z,61.11
2022-11-20T18:52:35.484Z,61.17
2022-11-20T18:55:03.960Z,61.25
2022-11-20T18:57:31.662Z,61.14
2022-11-20T19:00:04.842Z,61.30
2022-11-20T19:02:40.611Z,61.30
2022-11-20T19:05:08.516Z,61.41
2022-11-20T19:07:35.455Z,61.13
2022-11-20T19:10:04.230Z,61.25
2022-11-20T19:12:31.642Z,61.11
2022-11-20T19:14:58.410Z,61.20
2022-11-20T19:17:25.297Z,61.26
2022-11-20T19:19:54.938Z,61.17
2022-11-20T19:22:21.995Z,61.17
2022-11-20T19:24:49.437Z,61.23
2022-11-20T19:27:16.265Z,61.37
2022-11-20T19:29:43.199Z,61.27
2022-11-20T19:32:10.223Z,60.88
2022-11-20T19:34:36.994Z,60.99
2022-11-20T19:37:03.923Z,61.21
2022-11-20T19:39:30.960Z,61.23
2022-11-20T19:41:57.653Z,61.16
2022-11-20T19:44:24.817Z,61.25
2022-11-20T19:46:51.722Z,61.14
2022-11-20T19:49:18.475Z,61.35
2022-11-20T19:51:51.089Z,61.35
2022-11-20T19:54:18.415Z,61.23
2022-11-20T19:56:46.616Z,61.14
2022-11-20T19:59:14.644Z,61.15
2022-11-20T20:01:42.127Z,61.17
2022-11-20T20:04:10.288Z,61.35
2022-11-20T20:06:39.373Z,61.31
2022-11-20T20:09:09.784Z,61.55
2022-11-20T20:11:37.409Z,61.32
2022-11-20T20:14:10.397Z,61.23
2022-11-20T20:16:37.253Z,61.35
2022-11-20T20:19:05.653Z,61.19
2022-11-20T20:21:35.117Z,61.38
2022-11-20T20:24:02.759Z,61.27
2022-11-20T20:26:31.511Z,61.24
2022-11-20T20:28:59.224Z,61.44
2022-11-20T20:31:28.038Z,61.14
2022-11-20T20:33:55.842Z,61.24
2022-11-20T20:36:23.921Z,61.29
2022-11-20T20:38:55.025Z,61.31
2022-11-20T20:41:24.650Z,61.61
2022-11-20T20:44:11.627Z,61.53
2022-11-20T20:46:39.399Z,61.51
2022-11-20T20:49:07.344Z,61.68
2022-11-20T20:51:35.076Z,61.60
2022-11-20T20:54:01.859Z,61.57
2022-11-20T20:56:28.645Z,61.81
2022-11-20T20:58:55.385Z,61.81
2022-11-20T21:01:23.033Z,61.76
2022-11-20T21:03:49.959Z,62.10
2022-11-20T21:06:16.889Z,62.02
2022-11-20T21:08:44.668Z,62.04
2022-11-20T21:11:14.310Z,62.26
2022-11-20T21:13:43.032Z,62.32
2022-11-20T21:16:11.550Z,62.54
2022-11-20T21:18:38.833Z,62.55
2022-11-20T21:21:26.675Z,62.44
2022-11-20T21:23:54.108Z,62.76
2022-11-20T21:26:21.884Z,62.73
2022-11-20T21:28:50.012Z,62.98
2022-11-20T21:31:22.300Z,62.75
2022-11-20T21:33:51.363Z,62.68
2022-11-20T21:36:20.705Z,62.82
2022-11-20T21:38:48.200Z,63.69
2022-11-20T21:41:15.554Z,62.17
2022-11-20T21:43:44.285Z,62.15
2022-11-20T21:46:13.956Z,62.15
2022-11-20T21:48:42.666Z,62.04
2022-11-20T21:51:15.039Z,61.86
2022-11-20T21:53:42.353Z,61.75
2022-11-20T21:56:10.620Z,61.82
2022-11-20T21:58:39.308Z,61.91
2022-11-20T22:01:10.700Z,61.67
2022-11-20T22:03:38.761Z,61.80
2022-11-20T22:06:07.240Z,61.83
2022-11-20T22:08:35.986Z,61.70
2022-11-20T22:11:11.782Z,61.58
2022-11-20T22:13:57.291Z,61.90
2022-11-20T22:16:24.911Z,61.79
2022-11-20T22:18:54.749Z,61.64
2022-11-20T22:21:24.383Z,61.82
2022-11-20T22:23:51.611Z,61.71
2022-11-20T22:26:21.020Z,61.87
2022-11-20T22:28:51.486Z,62.13
2022-11-20T22:31:20.411Z,62.30
2022-11-20T22:33:47.206Z,62.59
2022-11-20T22:36:16.481Z,62.32
2022-11-20T22:38:43.714Z,62.42
2022-11-20T22:41:16.515Z,62.30
2022-11-20T22:43:44.660Z,62.35
2022-11-20T22:46:11.584Z,62.08
2022-11-20T22:48:41.225Z,62.20
2022-11-20T22:51:12.954Z,62.12
2022-11-20T22:53:41.794Z,62.12
2022-11-20T22:56:10.581Z,61.96
2022-11-20T22:58:38.296Z,62.11
2022-11-20T23:01:25.191Z,62.05
2022-11-20T23:03:57.222Z,61.85
2022-11-20T23:06:24.858Z,61.94
2022-11-20T23:08:52.125Z,62.09
2022-11-20T23:11:23.217Z,62.01
2022-11-20T23:13:56.600Z,62.00
2022-11-20T23:16:24.522Z,62.23
2022-11-20T23:18:56.055Z,62.13
2022-11-20T23:21:23.234Z,61.96
2022-11-20T23:23:54.886Z,62.33
2022-11-20T23:26:24.327Z,62.32
2022-11-20T23:28:53.768Z,62.27
2022-11-20T23:31:20.826Z,62.45
2022-11-20T23:33:47.761Z,62.54
2022-11-20T23:36:14.595Z,62.45
2022-11-20T23:38:41.536Z,62.51
2022-11-20T23:41:09.160Z,62.30
2022-11-20T23:43:36.006Z,62.55
2022-11-20T23:46:03.920Z,62.46
2022-11-20T23:48:33.900Z,62.23
2022-11-20T23:51:01.321Z,62.54
2022-11-20T23:53:28.317Z,62.68
2022-11-20T23:55:58.254Z,62.58
2022-11-20T23:58:26.832Z,62.65
